createdAt,value
2022-10-18T00:01:20.229Z,95.74
2022-10-18T00:03:22.384Z,96.26
2022-10-18T00:05:23.823Z,96.35
2022-10-18T00:07:25.237Z,96.19
2022-10-18T00:09:27.676Z,95.59
2022-10-18T00:11:29.192Z,95.85
2022-10-18T00:13:30.745Z,95.89
2022-10-18T00:15:32.171Z,95.40
2022-10-18T00:17:37.664Z,95.39
2022-10-18T00:19:39.141Z,95.72
2022-10-18T00:21:40.634Z,96.52
2022-10-18T00:23:43.267Z,96.79
2022-10-18T00:25:44.702Z,96.73
2022-10-18T00:27:46.129Z,95.36
2022-10-18T00:29:47.572Z,94.88
2022-10-18T00:31:49.004Z,94.25
2022-10-18T00:33:55.248Z,93.94
2022-10-18T00:36:00.668Z,94.46
2022-10-18T00:38:02.106Z,94.56
2022-10-18T00:40:04.854Z,94.88
2022-10-18T00:42:06.285Z,94.70
2022-10-18T00:44:27.660Z,95.10
2022-10-18T00:46:32.273Z,94.80
2022-10-18T00:48:33.728Z,94.25
2022-10-18T00:50:36.251Z,94.21
2022-10-18T00:52:45.764Z,94.32
2022-10-18T00:54:49.707Z,94.28
2022-10-18T00:56:51.280Z,94.89
2022-10-18T00:58:52.856Z,94.57
2022-10-18T01:00:54.355Z,93.90
2022-10-18T01:02:58.210Z,93.73
2022-10-18T01:04:59.644Z,93.83
2022-10-18T01:07:28.922Z,94.37
2022-10-18T01:09:59.219Z,95.16
2022-10-18T01:12:06.584Z,95.52
2022-10-18T01:14:21.342Z,94.86
2022-10-18T01:16:37.958Z,94.71
2022-10-18T01:19:01.469Z,94.45
2022-10-18T01:21:08.916Z,93.46
2022-10-18T01:23:42.749Z,93.24
2022-10-18T01:25:59.263Z,92.20
2022-10-18T01:28:38.495Z,91.58
2022-10-18T01:30:42.986Z,91.54
2022-10-18T01:32:48.981Z,92.00
2022-10-18T01:34:55.902Z,91.92
2022-10-18T01:36:58.682Z,92.17
2022-10-18T01:39:05.807Z,92.26
2022-10-18T01:41:13.233Z,92.29
2022-10-18T01:43:19.860Z,91.89
2022-10-18T01:45:24.064Z,91.14
2022-10-18T01:47:26.946Z,91.42
2022-10-18T01:49:28.404Z,91.05
2022-10-18T01:51:31.701Z,91.06
2022-10-18T01:53:34.741Z,91.31
2022-10-18T01:55:45.613Z,91.54
2022-10-18T01:58:06.102Z,91.44
2022-10-18T02:00:07.546Z,91.72
2022-10-18T02:02:41.718Z,91.46
2022-10-18T02:04:59.091Z,90.05
2022-10-18T02:07:21.419Z,88.74
2022-10-18T02:09:33.876Z,88.52
2022-10-18T02:11:37.939Z,88.86
2022-10-18T02:13:47.841Z,89.48
2022-10-18T02:15:56.371Z,89.93
2022-10-18T02:17:57.800Z,90.30
2022-10-18T02:20:05.516Z,90.51
2022-10-18T02:22:10.541Z,90.77
2022-10-18T02:24:14.523Z,91.31
2022-10-18T02:26:16.505Z,90.98
2022-10-18T02:28:18.199Z,90.41
2022-10-18T02:30:24.587Z,91.00
2022-10-18T02:32:34.779Z,90.60
2022-10-18T02:34:41.350Z,90.35
2022-10-18T02:36:47.360Z,90.27
2022-10-18T02:38:56.779Z,90.08
2022-10-18T02:40:59.468Z,89.93
2022-10-18T02:43:00.917Z,90.10
2022-10-18T02:45:03.320Z,90.65
2022-10-18T02:47:06.476Z,91.25
2022-10-18T02:49:07.927Z,91.86
2022-10-18T02:51:09.371Z,92.61
2022-10-18T02:53:10.800Z,92.31
2022-10-18T02:55:12.234Z,91.88
2022-10-18T02:57:13.666Z,91.45
2022-10-18T02:59:15.245Z,91.12
2022-10-18T03:01:16.754Z,91.37
2022-10-18T03:03:18.251Z,91.63
2022-10-18T03:05:19.677Z,91.49
2022-10-18T03:07:21.211Z,92.40
2022-10-18T03:09:22.705Z,93.20
2022-10-18T03:11:24.200Z,93.14
2022-10-18T03:13:25.736Z,93.69
2022-10-18T03:15:27.307Z,94.57
2022-10-18T03:17:28.927Z,95.49
2022-10-18T03:19:30.542Z,96.71
2022-10-18T03:21:32.035Z,98.01
2022-10-18T03:23:33.621Z,99.34
2022-10-18T03:25:35.099Z,100.00
2022-10-18T03:27:36.523Z,100.00
2022-10-18T03:29:38.019Z,100.00
2022-10-18T03:31:39.465Z,100.00
2022-10-18T03:33:40.906Z,100.00
2022-10-18T03:35:42.382Z,100.00
2022-10-18T03:37:43.826Z,100.00
2022-10-18T03:39:45.269Z,100.00
2022-10-18T03:41:46.766Z,100.00
2022-10-18T03:43:48.250Z,100.00
2022-10-18T03:45:50.062Z,100.00
2022-10-18T03:47:51.548Z,100.00
2022-10-18T03:49:56.234Z,100.00
2022-10-18T03:51:58.922Z,100.00
2022-10-18T03:54:00.388Z,100.00
2022-10-18T03:56:01.913Z,100.00
2022-10-18T03:58:03.761Z,100.00
2022-10-18T04:00:05.809Z,100.00
2022-10-18T04:02:07.233Z,100.00
2022-10-18T04:04:08.811Z,100.00
2022-10-18T04:06:10.347Z,100.00
2022-10-18T04:08:12.483Z,100.00
2022-10-18T04:10:14.015Z,100.00
2022-10-18T04:12:15.539Z,100.00
2022-10-18T04:14:17.136Z,100.00
2022-10-18T04:16:18.630Z,100.00
2022-10-18T04:18:20.058Z,100.00
2022-10-18T04:20:21.629Z,100.00
2022-10-18T04:22:23.100Z,100.00
2022-10-18T04:24:24.623Z,100.00
2022-10-18T04:26:26.131Z,100.00
2022-10-18T04:28:27.606Z,100.00
2022-10-18T04:30:29.061Z,100.00
2022-10-18T04:32:30.491Z,100.00
2022-10-18T04:34:32.017Z,100.00
2022-10-18T04:36:33.469Z,100.00
2022-10-18T04:38:34.996Z,100.00
2022-10-18T04:40:37.527Z,100.00
2022-10-18T04:42:38.996Z,100.00
2022-10-18T04:44:40.476Z,100.00
2022-10-18T04:46:41.998Z,100.00
2022-10-18T04:48:43.422Z,100.00
2022-10-18T04:50:48.504Z,100.00
2022-10-18T04:54:56.398Z,100.00
2022-10-18T04:57:00.508Z,100.00
2022-10-18T04:59:01.986Z,100.00
2022-10-18T05:01:07.572Z,100.00
2022-10-18T05:03:12.264Z,100.00
2022-10-18T05:05:14.304Z,100.00
2022-10-18T05:07:15.956Z,100.00
2022-10-18T05:09:17.516Z,100.00
2022-10-18T05:11:19.177Z,100.00
2022-10-18T05:13:20.595Z,100.00
2022-10-18T05:15:22.092Z,100.00
2022-10-18T05:17:23.564Z,100.00
2022-10-18T05:19:25.070Z,100.00
2022-10-18T05:21:26.507Z,100.00
2022-10-18T05:23:27.991Z,100.00
2022-10-18T05:25:29.457Z,100.00
2022-10-18T05:27:30.975Z,100.00
2022-10-18T05:29:32.395Z,100.00
2022-10-18T05:31:34.420Z,100.00
2022-10-18T05:33:36.101Z,100.00
2022-10-18T05:35:37.709Z,100.00
2022-10-18T05:37:39.153Z,100.00
2022-10-18T05:39:40.608Z,100.00
2022-10-18T05:41:42.319Z,100.00
2022-10-18T05:43:43.967Z,100.00
2022-10-18T05:45:50.342Z,100.00
2022-10-18T05:47:51.936Z,100.00
2022-10-18T05:49:53.457Z,100.00
2022-10-18T05:51:54.988Z,100.00
2022-10-18T05:53:56.432Z,100.00
2022-10-18T05:56:01.780Z,100.00
2022-10-18T05:58:04.194Z,100.00
2022-10-18T06:00:06.199Z,100.00
2022-10-18T06:02:09.996Z,100.00
2022-10-18T06:04:11.805Z,100.00
2022-10-18T06:06:14.439Z,100.00
2022-10-18T06:08:15.949Z,100.00
2022-10-18T06:10:17.434Z,100.00
2022-10-18T06:12:18.895Z,100.00
2022-10-18T06:14:20.387Z,100.00
2022-10-18T06:16:22.649Z,100.00
2022-10-18T06:18:24.161Z,100.00
2022-10-18T06:20:25.610Z,100.00
2022-10-18T06:22:27.110Z,100.00
2022-10-18T06:24:28.594Z,100.00
2022-10-18T06:26:30.203Z,100.00
2022-10-18T06:28:33.966Z,100.00
2022-10-18T06:30:37.006Z,100.00
2022-10-18T06:32:38.445Z,100.00
2022-10-18T06:34:39.889Z,100.00
2022-10-18T06:36:41.335Z,100.00
2022-10-18T06:38:43.292Z,100.00
2022-10-18T06:40:47.833Z,100.00
2022-10-18T06:42:59.957Z,100.00
2022-10-18T06:45:03.246Z,100.00
2022-10-18T06:47:04.711Z,100.00
2022-10-18T06:49:06.214Z,100.00
2022-10-18T06:51:08.689Z,100.00
2022-10-18T06:53:10.135Z,100.00
2022-10-18T06:55:11.600Z,100.00
2022-10-18T06:57:13.037Z,100.00
2022-10-18T06:59:14.866Z,100.00
2022-10-18T07:01:19.532Z,100.00
2022-10-18T07:03:21.864Z,100.00
2022-10-18T07:05:23.365Z,100.00
2022-10-18T07:07:24.888Z,100.00
2022-10-18T07:09:26.450Z,100.00
2022-10-18T07:11:27.962Z,100.00
2022-10-18T07:13:32.744Z,100.00
2022-10-18T07:15:38.373Z,100.00
2022-10-18T07:17:40.005Z,100.00
2022-10-18T07:19:41.444Z,100.00
2022-10-18T07:21:42.888Z,100.00
2022-10-18T07:23:48.477Z,100.00
2022-10-18T07:25:50.697Z,100.00
2022-10-18T07:27:52.841Z,100.00
2022-10-18T07:29:54.286Z,100.00
2022-10-18T07:31:55.730Z,100.00
2022-10-18T07:33:57.488Z,100.00
2022-10-18T07:36:03.729Z,100.00
2022-10-18T07:38:05.165Z,100.00
2022-10-18T07:40:07.229Z,100.00
2022-10-18T07:42:08.641Z,100.00
2022-10-18T07:44:10.272Z,100.00
2022-10-18T07:46:12.429Z,100.00
2022-10-18T07:48:13.867Z,100.00
2022-10-18T07:50:15.424Z,100.00
2022-10-18T07:52:16.913Z,100.00
2022-10-18T07:54:18.353Z,100.00
2022-10-18T07:56:21.703Z,100.00
2022-10-18T07:58:23.155Z,100.00
2022-10-18T08:00:24.631Z,100.00
2022-10-18T08:02:26.065Z,100.00
2022-10-18T08:04:27.551Z,100.00
2022-10-18T08:06:28.958Z,100.00
2022-10-18T08:08:30.795Z,100.00
2022-10-18T08:10:32.256Z,100.00
2022-10-18T08:12:33.683Z,100.00
2022-10-18T08:14:35.232Z,100.00
2022-10-18T08:16:36.672Z,100.00
2022-10-18T08:18:38.344Z,100.00
2022-10-18T08:20:44.500Z,100.00
2022-10-18T08:22:45.957Z,100.00
2022-10-18T08:24:47.665Z,100.00
2022-10-18T08:26:50.003Z,100.00
2022-10-18T08:29:10.418Z,100.00
2022-10-18T08:31:17.387Z,100.00
2022-10-18T08:33:18.838Z,100.00
2022-10-18T08:35:20.531Z,100.00
2022-10-18T08:37:22.051Z,100.00
2022-10-18T08:39:23.660Z,100.00
2022-10-18T08:41:37.262Z,100.00
2022-10-18T08:44:04.693Z,100.00
2022-10-18T08:46:12.308Z,100.00
2022-10-18T08:48:21.939Z,100.00
2022-10-18T08:50:36.858Z,100.00
2022-10-18T08:53:05.963Z,100.00
2022-10-18T08:55:37.796Z,100.00
2022-10-18T08:57:39.261Z,100.00
2022-10-18T08:59:41.793Z,100.00
2022-10-18T09:02:05.065Z,100.00
2022-10-18T09:04:26.657Z,100.00
2022-10-18T09:07:09.411Z,100.00
2022-10-18T09:09:35.210Z,100.00
2022-10-18T09:11:44.635Z,100.00
2022-10-18T09:14:03.256Z,100.00
2022-10-18T09:16:08.277Z,100.00
2022-10-18T09:18:27.895Z,100.00
2022-10-18T09:20:39.557Z,100.00
2022-10-18T09:22:55.199Z,100.00
2022-10-18T09:25:09.843Z,100.00
2022-10-18T09:27:18.961Z,100.00
2022-10-18T09:29:47.566Z,100.00
2022-10-18T09:32:01.230Z,100.00
2022-10-18T09:34:10.988Z,100.00
2022-10-18T09:36:30.566Z,100.00
2022-10-18T09:38:49.542Z,100.00
2022-10-18T09:40:56.483Z,100.00
2022-10-18T09:43:24.446Z,100.00
2022-10-18T09:45:31.129Z,100.00
2022-10-18T09:47:38.579Z,99.65
2022-10-18T09:49:51.008Z,99.31
2022-10-18T09:51:54.271Z,98.72
2022-10-18T09:54:26.981Z,98.24
2022-10-18T09:56:39.335Z,98.15
2022-10-18T09:58:48.341Z,97.25
2022-10-18T10:00:52.625Z,96.26
2022-10-18T10:02:54.884Z,94.53
2022-10-18T10:04:56.954Z,93.01
2022-10-18T10:07:01.355Z,92.65
2022-10-18T10:09:16.757Z,92.39
2022-10-18T10:11:29.624Z,92.75
2022-10-18T10:13:32.189Z,92.54
2022-10-18T10:15:38.112Z,91.46
2022-10-18T10:17:40.991Z,90.94
2022-10-18T10:20:00.494Z,89.77
2022-10-18T10:22:37.182Z,89.41
2022-10-18T10:24:50.688Z,88.48
2022-10-18T10:26:59.876Z,88.01
2022-10-18T10:29:01.648Z,87.42
2022-10-18T10:31:24.628Z,85.65
2022-10-18T10:33:37.704Z,84.59
2022-10-18T10:35:56.329Z,83.92
2022-10-18T10:37:57.817Z,83.45
2022-10-18T10:40:23.089Z,83.12
2022-10-18T10:42:26.798Z,80.78
2022-10-18T10:44:32.141Z,80.07
2022-10-18T10:46:36.460Z,79.40
2022-10-18T10:49:04.119Z,80.38
2022-10-18T10:51:18.346Z,80.99
2022-10-18T10:53:32.453Z,79.60
2022-10-18T10:55:35.793Z,79.69
2022-10-18T10:57:38.293Z,78.41
2022-10-18T10:59:55.090Z,75.28
2022-10-18T11:02:15.271Z,72.97
2022-10-18T11:04:30.764Z,72.32
2022-10-18T11:06:55.277Z,70.07
2022-10-18T11:09:01.563Z,65.91
2022-10-18T11:11:19.315Z,66.66
2022-10-18T11:14:13.249Z,65.59
2022-10-18T11:16:29.283Z,64.34
2022-10-18T11:18:35.259Z,64.41
2022-10-18T11:21:02.844Z,62.73
2022-10-18T11:23:11.738Z,62.24
2022-10-18T11:25:15.941Z,61.96
2022-10-18T11:27:27.456Z,60.32
2022-10-18T11:29:42.307Z,60.91
2022-10-18T11:32:18.970Z,63.12
2022-10-18T11:34:23.106Z,64.11
2022-10-18T11:36:36.837Z,64.31
2022-10-18T11:38:56.097Z,63.99
2022-10-18T11:41:34.763Z,63.54
2022-10-18T11:44:00.990Z,64.59
2022-10-18T11:46:11.652Z,63.50
2022-10-18T11:48:45.261Z,64.24
2022-10-18T11:51:05.704Z,64.50
2022-10-18T11:53:25.600Z,65.15
2022-10-18T11:55:52.462Z,64.94
2022-10-18T11:58:06.090Z,66.61
2022-10-18T12:00:33.936Z,66.81
2022-10-18T12:02:44.602Z,68.19
2022-10-18T12:04:59.816Z,68.49
2022-10-18T12:07:21.202Z,69.29
2022-10-18T12:09:32.519Z,69.88
2022-10-18T12:11:46.922Z,69.26
2022-10-18T12:14:01.220Z,69.44
2022-10-18T12:16:04.967Z,70.13
2022-10-18T12:18:14.844Z,70.82
2022-10-18T12:20:22.984Z,71.02
2022-10-18T12:22:32.731Z,70.44
2022-10-18T12:24:35.735Z,69.92
2022-10-18T12:26:37.878Z,69.28
2022-10-18T12:28:56.660Z,69.69
2022-10-18T12:31:18.109Z,68.29
2022-10-18T12:33:29.023Z,69.23
2022-10-18T12:35:42.677Z,69.27
2022-10-18T12:37:50.391Z,69.88
2022-10-18T12:40:38.806Z,69.19
2022-10-18T12:42:43.941Z,70.11
2022-10-18T12:44:46.458Z,70.95
2022-10-18T12:46:56.289Z,70.93
2022-10-18T12:49:04.668Z,71.70
2022-10-18T12:51:16.840Z,71.10
2022-10-18T12:53:27.132Z,68.04
2022-10-18T12:55:33.361Z,68.34
2022-10-18T12:57:53.290Z,67.55
2022-10-18T12:59:54.839Z,67.46
2022-10-18T13:01:56.282Z,67.73
2022-10-18T13:03:59.091Z,67.61
2022-10-18T13:06:04.220Z,68.47
2022-10-18T13:08:38.113Z,67.99
2022-10-18T13:10:40.488Z,67.80
2022-10-18T13:13:39.130Z,67.44
2022-10-18T13:15:47.255Z,68.14
2022-10-18T13:17:55.865Z,68.29
2022-10-18T13:20:20.443Z,68.11
2022-10-18T13:22:37.534Z,68.08
2022-10-18T13:25:05.586Z,68.43
2022-10-18T13:27:37.492Z,68.65
2022-10-18T13:30:12.307Z,68.88
2022-10-18T13:32:38.005Z,67.71
2022-10-18T13:34:39.484Z,68.08
2022-10-18T13:36:42.181Z,68.54
2022-10-18T13:38:57.530Z,68.62
2022-10-18T13:41:06.087Z,69.44
2022-10-18T13:43:36.717Z,69.63
2022-10-18T13:45:41.119Z,69.79
2022-10-18T13:47:42.769Z,69.32
2022-10-18T13:49:49.830Z,69.32
2022-10-18T13:52:19.231Z,68.53
2022-10-18T13:54:44.980Z,68.19
2022-10-18T13:56:56.840Z,68.24
2022-10-18T13:59:14.719Z,67.59
2022-10-18T14:01:40.377Z,68.30
2022-10-18T14:04:02.479Z,67.59
2022-10-18T14:06:06.622Z,67.43
2022-10-18T14:08:16.866Z,67.07
2022-10-18T14:10:43.417Z,67.17
2022-10-18T14:12:54.609Z,66.92
2022-10-18T14:15:08.051Z,68.03
2022-10-18T14:17:28.223Z,66.91
2022-10-18T14:19:39.326Z,65.61
2022-10-18T14:21:48.251Z,66.53
2022-10-18T14:23:50.688Z,66.56
2022-10-18T14:26:05.603Z,66.99
2022-10-18T14:28:15.706Z,67.52
2022-10-18T14:30:20.387Z,67.60
2022-10-18T14:32:28.488Z,68.32
2022-10-18T14:34:29.979Z,68.54
2022-10-18T14:36:40.904Z,69.06
2022-10-18T14:38:57.536Z,69.21
2022-10-18T14:41:15.009Z,69.50
2022-10-18T14:43:20.278Z,70.18
2022-10-18T14:45:40.751Z,69.80
2022-10-18T14:47:45.448Z,69.25
2022-10-18T14:49:47.646Z,69.52
2022-10-18T14:51:51.809Z,68.92
2022-10-18T14:53:53.643Z,69.64
2022-10-18T14:55:57.732Z,69.42
2022-10-18T14:57:59.748Z,69.35
2022-10-18T15:00:05.286Z,69.23
2022-10-18T15:02:25.314Z,69.36
2022-10-18T15:04:33.129Z,69.88
2022-10-18T15:06:34.616Z,69.62
2022-10-18T15:08:40.103Z,69.61
2022-10-18T15:10:41.693Z,68.87
2022-10-18T15:13:08.060Z,68.80
2022-10-18T15:15:13.935Z,68.96
2022-10-18T15:17:35.647Z,69.06
2022-10-18T15:19:42.823Z,69.41
2022-10-18T15:24:34.808Z,70.25
2022-10-18T15:26:36.372Z,70.22
2022-10-18T15:28:50.100Z,70.42
2022-10-18T15:30:51.762Z,70.55
2022-10-18T15:33:01.300Z,70.84
2022-10-18T15:35:10.039Z,71.22
2022-10-18T15:37:18.996Z,71.44
2022-10-18T15:39:23.578Z,71.81
2022-10-18T15:41:46.798Z,72.09
2022-10-18T15:43:48.280Z,72.48
2022-10-18T15:45:57.687Z,72.57
2022-10-18T15:48:10.593Z,72.59
2022-10-18T15:50:35.730Z,72.67
2022-10-18T15:52:42.465Z,72.63
2022-10-18T15:54:43.942Z,72.79
2022-10-18T15:56:45.705Z,73.36
2022-10-18T15:58:48.837Z,73.29
2022-10-18T16:00:52.092Z,73.59
2022-10-18T16:02:53.571Z,73.70
2022-10-18T16:04:55.040Z,74.12
2022-10-18T16:06:57.934Z,74.19
2022-10-18T16:08:59.349Z,74.37
2022-10-18T16:11:00.845Z,74.70
2022-10-18T16:13:02.386Z,74.86
2022-10-18T16:15:03.991Z,75.25
2022-10-18T16:17:07.244Z,75.42
2022-10-18T16:19:13.440Z,75.38
2022-10-18T16:21:25.789Z,75.40
2022-10-18T16:23:28.750Z,76.03
2022-10-18T16:25:30.265Z,76.40
2022-10-18T16:27:31.716Z,76.71
2022-10-18T16:29:33.405Z,76.28
2022-10-18T16:31:34.987Z,76.76
2022-10-18T16:33:36.965Z,76.94
2022-10-18T16:35:38.465Z,76.80
2022-10-18T16:37:39.986Z,76.60
2022-10-18T16:39:41.413Z,76.66
2022-10-18T16:41:43.352Z,76.77
2022-10-18T16:43:46.835Z,76.55
2022-10-18T16:45:49.161Z,76.89
2022-10-18T16:47:50.634Z,76.81
2022-10-18T16:49:52.381Z,77.06
2022-10-18T16:51:54.799Z,77.19
2022-10-18T16:53:56.275Z,77.52
2022-10-18T16:56:03.210Z,77.16
2022-10-18T16:58:04.731Z,77.63
2022-10-18T17:00:07.001Z,77.63
2022-10-18T17:02:09.258Z,78.14
2022-10-18T17:04:10.694Z,78.44
2022-10-18T17:06:16.690Z,78.30
2022-10-18T17:08:25.048Z,78.33
2022-10-18T17:10:27.632Z,78.49
2022-10-18T17:12:29.254Z,78.57
2022-10-18T17:14:33.216Z,78.48
2022-10-18T17:16:36.810Z,78.78
2022-10-18T17:18:38.259Z,79.23
2022-10-18T17:20:40.811Z,79.26
2022-10-18T17:22:42.278Z,79.25
2022-10-18T17:24:43.755Z,79.02
2022-10-18T17:26:45.219Z,79.25
2022-10-18T17:28:49.875Z,79.35
2022-10-18T17:30:51.731Z,79.99
2022-10-18T17:32:55.333Z,80.17
2022-10-18T17:34:56.869Z,80.12
2022-10-18T17:36:58.534Z,80.16
2022-10-18T17:39:00.136Z,79.93
2022-10-18T17:41:09.597Z,80.04
2022-10-18T17:43:13.379Z,79.89
2022-10-18T17:45:14.862Z,79.63
2022-10-18T17:47:16.304Z,80.30
2022-10-18T17:49:18.293Z,80.49
2022-10-18T17:51:19.767Z,79.91
2022-10-18T17:53:25.112Z,80.17
2022-10-18T17:55:27.540Z,79.85
2022-10-18T17:57:28.974Z,79.87
2022-10-18T17:59:30.453Z,79.95
2022-10-18T18:01:32.038Z,80.47
2022-10-18T18:03:35.711Z,80.17
2022-10-18T18:05:37.195Z,79.72
2022-10-18T18:07:38.669Z,79.66
2022-10-18T18:09:40.282Z,79.75
2022-10-18T18:11:43.764Z,80.00
2022-10-18T18:13:45.230Z,80.35
2022-10-18T18:15:46.662Z,80.20
2022-10-18T18:17:58.431Z,80.30
2022-10-18T18:20:00.213Z,80.84
2022-10-18T18:22:01.999Z,81.36
2022-10-18T18:24:03.790Z,81.41
2022-10-18T18:26:05.669Z,81.01
2022-10-18T18:28:07.734Z,80.76
2022-10-18T18:30:09.975Z,80.37
2022-10-18T18:32:11.616Z,79.55
2022-10-18T18:34:13.336Z,78.76
2022-10-18T18:36:14.845Z,77.87
2022-10-18T18:38:16.278Z,77.63
2022-10-18T18:40:18.015Z,78.02
2022-10-18T18:42:19.459Z,77.47
2022-10-18T18:44:22.010Z,77.83
2022-10-18T18:46:25.057Z,77.66
2022-10-18T18:48:28.235Z,77.92
2022-10-18T18:50:31.808Z,78.46
2022-10-18T18:52:33.508Z,77.86
2022-10-18T18:54:35.137Z,78.51
2022-10-18T18:56:37.247Z,77.52
2022-10-18T18:58:39.784Z,76.62
2022-10-18T19:00:44.321Z,76.50
2022-10-18T19:02:46.085Z,75.91
2022-10-18T19:04:47.545Z,75.17
2022-10-18T19:06:49.003Z,74.34
2022-10-18T19:08:54.041Z,73.97
2022-10-18T19:10:55.488Z,73.62
2022-10-18T19:12:57.100Z,73.69
2022-10-18T19:14:58.550Z,73.32
2022-10-18T19:17:01.395Z,73.45
2022-10-18T19:19:02.867Z,73.13
2022-10-18T19:21:04.441Z,73.25
2022-10-18T19:23:05.916Z,73.38
2022-10-18T19:25:08.207Z,73.23
2022-10-18T19:27:12.296Z,73.36
2022-10-18T19:29:18.096Z,73.69
2022-10-18T19:31:19.643Z,73.57
2022-10-18T19:33:35.547Z,73.18
2022-10-18T19:35:43.760Z,74.10
2022-10-18T19:37:45.227Z,73.96
2022-10-18T19:39:46.749Z,73.97
2022-10-18T19:41:50.830Z,74.00
2022-10-18T19:43:52.415Z,74.74
2022-10-18T19:45:53.985Z,74.83
2022-10-18T19:47:55.428Z,74.90
2022-10-18T19:49:56.908Z,74.86
2022-10-18T19:51:58.457Z,74.64
2022-10-18T19:53:59.934Z,74.60
2022-10-18T19:56:03.505Z,75.38
2022-10-18T19:58:04.920Z,75.41
2022-10-18T20:00:09.808Z,75.40
2022-10-18T20:02:15.055Z,75.25
2022-10-18T20:04:17.464Z,75.38
2022-10-18T20:06:19.650Z,74.89
2022-10-18T20:08:21.332Z,75.40
2022-10-18T20:10:22.785Z,75.08
2022-10-18T20:12:24.786Z,74.99
2022-10-18T20:14:26.288Z,74.83
2022-10-18T20:16:30.992Z,74.89
2022-10-18T20:18:32.685Z,74.97
2022-10-18T20:20:37.244Z,74.67
2022-10-18T20:22:38.694Z,74.62
2022-10-18T20:24:40.143Z,74.33
2022-10-18T20:26:43.369Z,74.59
2022-10-18T20:28:46.126Z,74.48
2022-10-18T20:30:47.596Z,74.33
2022-10-18T20:32:51.658Z,73.91
2022-10-18T20:34:53.140Z,74.09
2022-10-18T20:36:55.420Z,73.59
2022-10-18T20:38:57.531Z,73.83
2022-10-18T20:41:16.357Z,73.37
2022-10-18T20:43:18.087Z,73.64
2022-10-18T20:45:19.502Z,73.56
2022-10-18T20:47:20.963Z,73.17
2022-10-18T20:49:22.403Z,73.29
2022-10-18T20:51:24.099Z,73.10
2022-10-18T20:53:25.552Z,72.71
2022-10-18T20:55:28.984Z,72.58
2022-10-18T20:57:34.158Z,72.71
2022-10-18T20:59:37.936Z,72.49
2022-10-18T21:01:39.789Z,72.19
2022-10-18T21:03:43.330Z,72.23
2022-10-18T21:05:44.761Z,72.82
2022-10-18T21:07:46.208Z,73.28
2022-10-18T21:09:47.662Z,73.65
2022-10-18T21:11:51.022Z,73.81
2022-10-18T21:14:02.050Z,73.63
2022-10-18T21:16:04.985Z,74.07
2022-10-18T21:18:06.436Z,74.21
2022-10-18T21:20:09.084Z,74.17
2022-10-18T21:22:10.526Z,74.20
2022-10-18T21:24:13.236Z,74.51
2022-10-18T21:26:16.604Z,74.76
2022-10-18T21:28:18.070Z,74.68
2022-10-18T21:30:19.653Z,75.00
2022-10-18T21:32:21.074Z,75.12
2022-10-18T21:34:22.643Z,75.48
2022-10-18T21:36:25.015Z,75.44
2022-10-18T21:38:26.463Z,76.13
2022-10-18T21:40:27.888Z,76.54
2022-10-18T21:42:29.303Z,76.42
2022-10-18T21:44:30.759Z,76.79
2022-10-18T21:46:32.521Z,76.95
2022-10-18T21:48:34.250Z,77.42
2022-10-18T21:50:35.728Z,77.48
2022-10-18T21:52:38.083Z,77.40
2022-10-18T21:54:39.539Z,77.78
2022-10-18T21:56:41.761Z,77.92
2022-10-18T21:58:44.044Z,77.75
2022-10-18T22:00:45.549Z,78.26
2022-10-18T22:02:47.115Z,78.37
2022-10-18T22:04:49.667Z,78.50
2022-10-18T22:06:51.950Z,78.57
2022-10-18T22:08:56.119Z,78.68
2022-10-18T22:10:58.019Z,79.32
2022-10-18T22:12:59.721Z,79.20
2022-10-18T22:15:02.651Z,79.21
2022-10-18T22:17:04.385Z,79.67
2022-10-18T22:19:07.231Z,79.25
2022-10-18T22:21:10.744Z,79.20
2022-10-18T22:23:12.947Z,79.35
2022-10-18T22:25:14.436Z,79.42
2022-10-18T22:27:15.863Z,79.19
2022-10-18T22:29:19.847Z,79.11
2022-10-18T22:31:24.172Z,79.31
2022-10-18T22:33:25.922Z,79.47
2022-10-18T22:35:27.415Z,79.50
2022-10-18T22:37:28.843Z,79.52
2022-10-18T22:39:30.323Z,79.34
2022-10-18T22:41:32.523Z,79.48
2022-10-18T22:43:34.922Z,79.25
2022-10-18T22:45:36.361Z,79.68
2022-10-18T22:47:37.966Z,79.70
2022-10-18T22:49:39.496Z,79.73
2022-10-18T22:51:41.018Z,79.66
2022-10-18T22:53:42.527Z,79.78
2022-10-18T22:55:43.997Z,79.81
2022-10-18T22:57:45.487Z,80.11
2022-10-18T22:59:46.925Z,80.20
2022-10-18T23:01:48.386Z,80.60
2022-10-18T23:03:54.666Z,80.55
2022-10-18T23:05:56.511Z,80.75
2022-10-18T23:07:57.920Z,80.82
2022-10-18T23:09:59.389Z,80.81
2022-10-18T23:12:00.826Z,81.07
2022-10-18T23:14:04.165Z,80.96
2022-10-18T23:16:06.002Z,80.98
2022-10-18T23:18:07.546Z,81.11
2022-10-18T23:20:09.337Z,81.13
2022-10-18T23:22:10.784Z,81.21
2022-10-18T23:24:12.302Z,81.37
2022-10-18T23:26:15.961Z,81.35
2022-10-18T23:28:17.388Z,81.66
2022-10-18T23:30:19.036Z,81.93
2022-10-18T23:32:20.493Z,81.81
2022-10-18T23:34:22.047Z,81.89
2022-10-18T23:36:24.109Z,81.92
2022-10-18T23:38:25.563Z,82.18
2022-10-18T23:40:27.059Z,81.95
2022-10-18T23:42:28.522Z,82.10
2022-10-18T23:44:29.981Z,81.94
2022-10-18T23:46:31.464Z,81.90
2022-10-18T23:48:34.269Z,82.33
2022-10-18T23:50:35.762Z,82.95
2022-10-18T23:52:37.294Z,83.52
2022-10-18T23:54:38.793Z,84.70
2022-10-18T23:56:40.279Z,85.06
2022-10-18T23:58:43.164Z,86.08
